Time;durP1;ratioP1;P1;durP2;ratioP2;P2;SDS_P1;SDS_P2;PMS_P1;PMS_P2;Temp;Humidity;BMP_temperature;BMP_pressure;BME280_temperature;BME280_humidity;BME280_pressure;Samples;Min_cycle;Max_cycle;Signal;HPM_P1;HPM_P2
2023/01/02 00:01:00;;;;;;;66.18;37.58;;;;;;;9.73;100.00;101925.34;4960942;28;20047;-84
2023/01/02 00:03:25;;;;;;;67.90;37.00;;;;;;;9.73;100.00;101926.19;4961757;28;20115;-84
2023/01/02 00:05:50;;;;;;;69.03;37.60;;;;;;;9.67;100.00;101921.41;4959416;28;20066;-82
2023/01/02 00:08:17;;;;;;;70.20;37.13;;;;;;;9.63;100.00;101924.41;4967894;29;20032;-81
2023/01/02 00:10:43;;;;;;;68.47;36.15;;;;;;;9.71;100.00;101920.16;4973591;29;20034;-80
2023/01/02 00:13:09;;;;;;;65.45;36.63;;;;;;;9.50;100.00;101913.94;4960950;29;20043;-84
2023/01/02 00:15:35;;;;;;;66.53;36.60;;;;;;;9.53;100.00;101918.16;4959725;29;20027;-83
2023/01/02 00:18:00;;;;;;;69.95;38.00;;;;;;;9.68;100.00;101912.47;4958937;29;20122;-84
2023/01/02 00:20:27;;;;;;;68.18;37.95;;;;;;;9.73;100.00;101904.16;4959106;28;20118;-83
2023/01/02 00:22:53;;;;;;;69.20;36.83;;;;;;;9.62;100.00;101907.66;4958086;29;20062;-83
2023/01/02 00:25:18;;;;;;;62.45;35.72;;;;;;;9.75;100.00;101903.06;4958457;29;20043;-83
2023/01/02 00:27:44;;;;;;;71.03;39.03;;;;;;;9.51;100.00;101904.22;4960421;29;20031;-81
2023/01/02 00:30:10;;;;;;;68.47;38.75;;;;;;;9.49;100.00;101906.97;4958933;29;20036;-82
2023/01/02 00:32:36;;;;;;;71.78;38.53;;;;;;;9.59;100.00;101901.78;4960202;29;20441;-81
2023/01/02 00:35:02;;;;;;;67.85;37.45;;;;;;;9.63;100.00;101901.41;4957413;29;20066;-82
2023/01/02 00:37:28;;;;;;;70.43;38.55;;;;;;;9.67;100.00;101907.31;4956576;28;20482;-83
2023/01/02 00:39:53;;;;;;;72.00;37.28;;;;;;;9.62;100.00;101902.38;4955406;29;20039;-84
2023/01/02 00:42:19;;;;;;;71.15;37.70;;;;;;;9.63;100.00;101900.56;4956801;29;20023;-83
2023/01/02 00:44:44;;;;;;;76.53;39.80;;;;;;;9.55;100.00;101895.03;4956542;29;20046;-84
2023/01/02 00:47:10;;;;;;;76.03;38.85;;;;;;;9.51;100.00;101894.44;4956729;29;20027;-82
2023/01/02 00:49:35;;;;;;;82.72;39.67;;;;;;;9.61;100.00;101895.38;4956517;29;20086;-82
2023/01/02 00:52:01;;;;;;;80.65;41.15;;;;;;;9.53;100.00;101895.19;4956362;29;20474;-83
2023/01/02 00:54:26;;;;;;;80.95;41.45;;;;;;;9.35;100.00;101889.53;4956537;29;20039;-80
2023/01/02 00:56:52;;;;;;;74.97;39.40;;;;;;;9.38;100.00;101901.66;4956222;29;20031;-83
2023/01/02 00:59:18;;;;;;;81.50;41.40;;;;;;;9.23;100.00;101895.78;4956182;29;20039;-82
2023/01/02 01:01:44;;;;;;;83.35;41.65;;;;;;;9.15;100.00;101898.19;4955810;29;20126;-85
2023/01/02 01:04:10;;;;;;;90.22;44.05;;;;;;;9.12;100.00;101892.28;4956468;29;20569;-85
2023/01/02 01:06:35;;;;;;;88.47;45.38;;;;;;;9.08;100.00;101896.16;4954726;29;20040;-82
2023/01/02 01:09:01;;;;;;;93.70;45.80;;;;;;;9.01;100.00;101894.94;4956602;29;20102;-82
2023/01/02 01:11:26;;;;;;;93.93;45.78;;;;;;;9.03;100.00;101893.00;4956264;28;20048;-83
2023/01/02 01:13:52;;;;;;;100.32;45.90;;;;;;;9.18;100.00;101891.84;4954964;29;20405;-84
2023/01/02 01:16:19;;;;;;;99.32;47.10;;;;;;;9.14;100.00;101890.38;4956145;29;20565;-84
2023/01/02 01:18:45;;;;;;;92.05;44.13;;;;;;;9.18;100.00;101886.53;4955495;29;20501;-84
2023/01/02 01:21:19;;;;;;;96.50;45.55;;;;;;;9.21;100.00;101888.94;4955868;29;20482;-83
2023/01/02 01:23:50;;;;;;;101.07;45.78;;;;;;;9.17;100.00;101890.13;4955559;28;20031;-83
2023/01/02 01:26:16;;;;;;;94.30;44.25;;;;;;;9.20;100.00;101889.91;4955990;29;20043;-82
2023/01/02 01:28:41;;;;;;;94.75;43.40;;;;;;;9.25;100.00;101893.00;4955291;29;20041;-84
2023/01/02 01:31:09;;;;;;;91.80;43.53;;;;;;;9.32;100.00;101894.22;4955717;29;20489;-84
2023/01/02 01:33:35;;;;;;;97.28;43.88;;;;;;;9.30;100.00;101893.50;4955436;29;20066;-82
2023/01/02 01:36:08;;;;;;;92.35;43.38;;;;;;;9.31;100.00;101887.25;4955647;29;20047;-83
2023/01/02 01:38:34;;;;;;;92.55;43.30;;;;;;;9.27;100.00;101885.81;4955621;29;20043;-82
2023/01/02 01:41:00;;;;;;;95.75;42.80;;;;;;;9.28;100.00;101887.47;4955650;29;20035;-83
2023/01/02 01:43:41;;;;;;;89.47;43.25;;;;;;;9.31;100.00;101892.56;4954619;29;20036;-85
2023/01/02 01:46:26;;;;;;;90.13;44.13;;;;;;;9.37;100.00;101894.72;4955215;28;20069;-83
2023/01/02 01:49:01;;;;;;;89.22;42.95;;;;;;;9.38;100.00;101888.44;4955292;28;20035;-83
2023/01/02 01:51:29;;;;;;;97.18;41.92;;;;;;;9.28;100.00;101892.75;4955517;29;20047;-85
2023/01/02 01:54:04;;;;;;;93.65;42.88;;;;;;;9.45;100.00;101892.28;4955109;29;20027;-82
2023/01/02 01:56:32;;;;;;;98.13;44.70;;;;;;;9.45;100.00;101889.63;4953799;29;20122;-82
2023/01/02 01:58:57;;;;;;;90.30;42.60;;;;;;;9.39;100.00;101887.47;4955154;29;20078;-82
2023/01/02 02:01:23;;;;;;;96.60;44.33;;;;;;;9.32;100.00;101883.63;4955142;29;20066;-83
2023/01/02 02:03:49;;;;;;;91.85;42.88;;;;;;;9.37;100.00;101886.78;4954757;29;20027;-81
2023/01/02 02:06:16;;;;;;;88.90;41.80;;;;;;;9.44;100.00;101884.47;4955213;29;20043;-83
2023/01/02 02:08:56;;;;;;;88.65;42.50;;;;;;;9.38;100.00;101883.13;4955269;29;20031;-82
2023/01/02 02:11:21;;;;;;;89.50;43.30;;;;;;;9.29;100.00;101887.38;4955220;29;20474;-85
2023/01/02 02:13:48;;;;;;;84.05;41.72;;;;;;;9.26;100.00;101887.59;4954802;29;20123;-84
2023/01/02 02:16:17;;;;;;;88.57;42.95;;;;;;;9.22;100.00;101890.59;4954889;29;20109;-81
2023/01/02 02:19:16;;;;;;;83.82;40.85;;;;;;;9.43;100.00;101881.00;4954871;29;20046;-83
2023/01/02 02:21:50;;;;;;;100.03;42.78;;;;;;;9.25;100.00;101880.63;4955331;29;20086;-82
2023/01/02 02:24:53;;;;;;;97.07;42.92;;;;;;;9.31;100.00;101876.69;4955359;29;20069;-81
2023/01/02 02:27:40;;;;;;;91.47;42.50;;;;;;;9.33;100.00;101874.75;4955384;29;20036;-82
2023/01/02 02:30:17;;;;;;;84.07;40.67;;;;;;;9.49;100.00;101869.91;4954950;29;20294;-84
2023/01/02 02:32:48;;;;;;;81.63;40.78;;;;;;;9.49;100.00;101864.63;4954647;29;20114;-82
2023/01/02 02:36:03;;;;;;;87.53;41.65;;;;;;;9.38;100.00;101856.69;4955216;29;20110;-81
2023/01/02 02:38:54;;;;;;;84.65;40.47;;;;;;;9.53;100.00;101870.50;4914573;29;20071;-86
2023/01/02 02:41:42;;;;;;;89.45;41.60;;;;;;;9.46;100.00;101867.50;4914952;29;20059;-84
2023/01/02 02:44:29;;;;;;;83.35;39.80;;;;;;;9.54;100.00;101862.47;4915248;29;20140;-82
2023/01/02 02:47:04;;;;;;;83.97;37.97;;;;;;;9.49;100.00;101856.69;4914393;29;20044;-82
2023/01/02 02:49:39;;;;;;;85.20;39.50;;;;;;;9.32;100.00;101858.03;4969571;28;20446;-82
2023/01/02 02:52:20;;;;;;;84.78;39.22;;;;;;;9.30;100.00;101853.81;4954476;28;20039;-83
2023/01/02 02:54:49;;;;;;;84.78;41.20;;;;;;;9.25;100.00;101855.97;4954735;29;20039;-82
2023/01/02 02:57:16;;;;;;;84.85;39.75;;;;;;;9.50;100.00;101860.19;4955150;29;20035;-81
2023/01/02 02:59:42;;;;;;;84.45;40.63;;;;;;;9.43;100.00;101854.53;4953863;29;20066;-83
2023/01/02 03:02:13;;;;;;;82.72;39.80;;;;;;;9.43;100.00;101851.88;4955090;29;20043;-82
2023/01/02 03:04:39;;;;;;;88.78;41.33;;;;;;;9.49;100.00;101855.84;4954300;28;20031;-83
2023/01/02 03:07:16;;;;;;;75.15;38.63;;;;;;;9.58;100.00;101858.59;4954742;29;20431;-82
2023/01/02 03:09:52;;;;;;;81.07;38.30;;;;;;;9.65;100.00;101854.47;4954915;29;20442;-84
2023/01/02 03:12:46;;;;;;;84.93;40.13;;;;;;;9.56;100.00;101855.22;4954266;29;20040;-83
2023/01/02 03:15:17;;;;;;;82.28;38.03;;;;;;;9.69;100.00;101845.34;4954194;29;20039;-82
2023/01/02 03:18:07;;;;;;;74.63;37.78;;;;;;;9.42;100.00;101850.19;4954300;29;20475;-82
2023/01/02 03:20:39;;;;;;;82.00;38.78;;;;;;;9.39;100.00;101845.16;4974174;23;20053;-81
2023/01/02 03:23:10;;;;;;;80.23;37.97;;;;;;;9.32;100.00;101847.44;4954897;29;20497;-82
2023/01/02 03:25:36;;;;;;;80.60;38.25;;;;;;;9.23;100.00;101842.88;4956501;29;20050;-82
2023/01/02 03:28:06;;;;;;;86.47;39.53;;;;;;;9.23;100.00;101842.88;4958841;29;20083;-82
2023/01/02 03:30:34;;;;;;;86.38;39.33;;;;;;;9.40;100.00;101841.53;4956664;29;20138;-85
2023/01/02 03:33:05;;;;;;;88.15;38.55;;;;;;;9.69;100.00;101845.34;4957891;29;20078;-82
2023/01/02 03:35:47;;;;;;;75.07;35.97;;;;;;;9.61;100.00;101845.09;4956186;28;20366;-84
2023/01/02 03:38:35;;;;;;;72.63;37.13;;;;;;;9.63;100.00;101839.69;4959805;28;20043;-83
2023/01/02 03:41:15;;;;;;;77.53;36.40;;;;;;;9.59;100.00;101841.75;4959778;29;20150;-83
2023/01/02 03:43:44;;;;;;;73.68;35.83;;;;;;;9.61;100.00;101837.16;4958675;29;20039;-85
2023/01/02 03:46:23;;;;;;;72.63;36.03;;;;;;;9.54;100.00;101833.34;4958990;29;20031;-83
2023/01/02 03:48:58;;;;;;;81.78;36.00;;;;;;;9.63;100.00;101835.25;4956415;29;20125;-82
2023/01/02 03:51:24;;;;;;;79.75;37.72;;;;;;;9.59;100.00;101825.03;4958278;28;20122;-83
2023/01/02 03:53:51;;;;;;;69.35;34.45;;;;;;;9.69;100.00;101818.88;4957194;29;20066;-82
2023/01/02 03:56:23;;;;;;;74.93;36.47;;;;;;;9.66;100.00;101824.41;4956567;29;20402;-82
2023/01/02 03:58:57;;;;;;;73.50;37.33;;;;;;;9.62;100.00;101820.31;4957191;29;20047;-83
2023/01/02 04:01:32;;;;;;;79.20;39.65;;;;;;;9.42;100.00;101815.78;4957648;29;20039;-80
2023/01/02 04:04:11;;;;;;;78.55;38.42;;;;;;;9.61;100.00;101813.34;4955042;29;20375;-84
2023/01/02 04:06:41;;;;;;;80.57;37.80;;;;;;;9.69;100.00;101813.56;4956381;29;20034;-81
2023/01/02 04:09:11;;;;;;;74.93;38.92;;;;;;;9.42;100.00;101813.16;4957317;29;20035;-83
2023/01/02 04:11:41;;;;;;;78.78;39.85;;;;;;;9.44;100.00;101819.19;4957149;29;20047;-81
2023/01/02 04:14:19;;;;;;;74.93;37.60;;;;;;;9.60;100.00;101810.84;4957395;28;20478;-81
2023/01/02 04:16:48;;;;;;;75.63;38.75;;;;;;;9.77;100.00;101816.44;4956791;29;20040;-83
2023/01/02 04:19:23;;;;;;;68.80;35.08;;;;;;;9.74;100.00;101816.66;4956691;29;20093;-84
2023/01/02 04:21:52;;;;;;;68.07;36.22;;;;;;;9.77;100.00;101820.91;4957118;29;20051;-83
2023/01/02 04:24:22;;;;;;;71.82;35.72;;;;;;;9.76;100.00;101814.75;4957510;29;20054;-84
2023/01/02 04:26:54;;;;;;;67.20;34.97;;;;;;;9.81;100.00;101824.94;4956950;29;20122;-84
2023/01/02 04:29:20;;;;;;;;;;;;;;;9.80;100.00;101821.50;4957247;29;20543;-83
2023/01/02 04:31:57;;;;;;;72.60;33.55;;;;;;;9.58;100.00;101821.53;4957353;28;19918;-83
2023/01/02 04:34:25;;;;;;;65.70;33.83;;;;;;;9.74;100.00;101824.59;4955544;29;20039;-82
2023/01/02 04:36:51;;;;;;;69.68;35.28;;;;;;;9.65;100.00;101825.38;4956835;29;20034;-83
2023/01/02 04:39:21;;;;;;;69.10;35.60;;;;;;;9.60;100.00;101821.41;4956668;29;20047;-82
2023/01/02 04:41:47;;;;;;;73.15;37.00;;;;;;;9.48;100.00;101823.22;4967622;29;20039;-82
2023/01/02 04:44:13;;;;;;;72.68;36.85;;;;;;;9.60;100.00;101824.91;4963686;29;20042;-80
2023/01/02 04:46:38;;;;;;;72.20;36.28;;;;;;;9.44;100.00;101832.41;4960983;28;20071;-82
2023/01/02 04:49:04;;;;;;;86.32;39.08;;;;;;;9.37;100.00;101828.56;4964932;29;20039;-81
2023/01/02 04:51:29;;;;;;;76.85;37.28;;;;;;;9.56;100.00;101827.91;4970754;29;20043;-83
2023/01/02 04:53:55;;;;;;;75.07;37.63;;;;;;;9.68;100.00;101821.63;4970782;29;20023;-81
2023/01/02 04:56:21;;;;;;;77.85;37.25;;;;;;;9.75;100.00;101818.38;4970009;29;20035;-83
2023/01/02 04:58:48;;;;;;;70.13;35.78;;;;;;;9.78;100.00;101820.75;4959582;29;20098;-82
2023/01/02 05:01:17;;;;;;;75.65;35.97;;;;;;;9.90;100.00;101829.50;4964381;29;20140;-81
2023/01/02 05:03:45;;;;;;;75.82;37.35;;;;;;;9.81;100.00;101833.75;4965064;29;20063;-82
2023/01/02 05:06:11;;;;;;;73.78;34.60;;;;;;;9.85;100.00;101834.34;4963615;29;20470;-82
2023/01/02 05:08:37;;;;;;;74.07;37.45;;;;;;;9.81;100.00;101833.75;4961740;29;20051;-82
2023/01/02 05:11:05;;;;;;;75.47;35.72;;;;;;;9.63;100.00;101832.59;4962032;29;20030;-82
2023/01/02 05:13:31;;;;;;;72.28;35.75;;;;;;;9.67;100.00;101842.00;4964703;29;20036;-81
2023/01/02 05:15:57;;;;;;;68.00;34.20;;;;;;;9.78;100.00;101839.28;4963888;29;20134;-82
2023/01/02 05:18:22;;;;;;;71.05;33.60;;;;;;;9.56;100.00;101838.50;4962723;29;20046;-82
2023/01/02 05:20:48;;;;;;;68.20;31.45;;;;;;;9.53;100.00;101833.47;4956352;29;20051;-84
2023/01/02 05:25:58;;;;;;;67.55;32.28;;;;;;;9.37;100.00;101844.44;4955233;29;20513;-82
2023/01/02 05:28:23;;;;;;;63.00;32.08;;;;;;;9.39;100.00;101846.94;4956417;29;20043;-83
2023/01/02 05:30:49;;;;;;;58.78;29.33;;;;;;;9.48;100.00;101844.41;4956211;29;20031;-82
2023/01/02 05:33:14;;;;;;;65.82;30.17;;;;;;;9.44;100.00;101850.94;4955082;29;20038;-81
2023/01/02 05:35:40;;;;;;;58.80;29.20;;;;;;;9.51;100.00;101852.09;4955424;29;20427;-82
2023/01/02 05:38:06;;;;;;;57.28;29.05;;;;;;;9.58;100.00;101857.78;4956328;28;20059;-80
2023/01/02 05:40:32;;;;;;;61.80;29.52;;;;;;;9.55;100.00;101855.34;4959676;29;20447;-84
2023/01/02 05:42:58;;;;;;;54.22;28.45;;;;;;;9.52;100.00;101858.22;4972291;29;20046;-81
2023/01/02 05:45:24;;;;;;;61.05;29.15;;;;;;;9.37;100.00;101870.91;4964735;29;20086;-81
2023/01/02 05:47:50;;;;;;;59.92;27.88;;;;;;;9.24;100.00;101865.75;4956739;29;20090;-82
2023/01/02 05:50:15;;;;;;;63.40;29.33;;;;;;;9.31;100.00;101868.75;4957594;29;20043;-84
2023/01/02 05:52:41;;;;;;;57.08;29.73;;;;;;;9.34;100.00;101865.84;4956476;29;20035;-83
2023/01/02 05:55:06;;;;;;;58.03;29.17;;;;;;;9.42;100.00;101874.00;4956341;29;20035;-82
2023/01/02 05:57:33;;;;;;;55.63;28.13;;;;;;;9.43;100.00;101870.41;4955984;29;20445;-84
2023/01/02 05:59:59;;;;;;;62.63;29.42;;;;;;;9.48;100.00;101878.00;4955024;28;20482;-83
2023/01/02 06:02:25;;;;;;;58.42;29.80;;;;;;;9.44;100.00;101882.69;4954698;29;20041;-81
2023/01/02 06:04:50;;;;;;;64.05;31.58;;;;;;;9.48;100.00;101873.50;4955802;28;20067;-83
2023/01/02 06:07:16;;;;;;;59.88;30.63;;;;;;;9.56;100.00;101878.22;4956064;29;20434;-80
2023/01/02 06:09:44;;;;;;;66.40;32.67;;;;;;;9.28;100.00;101876.88;4954673;29;20435;-82
2023/01/02 06:12:10;;;;;;;64.65;32.03;;;;;;;9.26;100.00;101882.31;4954781;29;20063;-83
2023/01/02 06:14:35;;;;;;;60.65;31.33;;;;;;;9.37;100.00;101880.63;4955242;29;20343;-82
2023/01/02 06:17:01;;;;;;;71.63;33.97;;;;;;;9.43;100.00;101874.84;4957370;29;20045;-84
2023/01/02 06:19:26;;;;;;;64.55;31.10;;;;;;;9.42;100.00;101884.59;4961529;29;20035;-82
2023/01/02 06:21:52;;;;;;;59.50;30.35;;;;;;;9.43;100.00;101875.69;4956408;29;20398;-85
2023/01/02 06:24:17;;;;;;;60.15;29.08;;;;;;;9.40;100.00;101880.38;4955676;29;20083;-84
2023/01/02 06:26:43;;;;;;;58.78;29.92;;;;;;;9.21;100.00;101883.66;4955770;29;20034;-83
2023/01/02 06:29:14;;;;;;;44.38;23.90;;;;;;;9.22;100.00;101888.81;4955469;29;20049;-85
2023/01/02 06:31:39;;;;;;;41.67;22.63;;;;;;;9.12;100.00;101884.34;4955777;29;20083;-84
2023/01/02 06:34:05;;;;;;;51.42;24.25;;;;;;;9.19;100.00;101888.19;4953532;29;20589;-83
2023/01/02 06:36:32;;;;;;;50.35;24.15;;;;;;;9.14;100.00;101890.38;4955659;29;20038;-83
2023/01/02 06:38:58;;;;;;;51.85;24.80;;;;;;;9.06;100.00;101883.03;4954330;29;20139;-85
2023/01/02 06:41:24;;;;;;;41.72;23.05;;;;;;;9.20;100.00;101884.59;4955463;29;20035;-83
2023/01/02 06:43:51;;;;;;;43.78;22.13;;;;;;;9.40;100.00;101890.97;4955069;29;20078;-81
2023/01/02 06:46:18;;;;;;;42.30;22.25;;;;;;;9.55;100.00;101893.25;4954642;29;20106;-83
2023/01/02 06:48:45;;;;;;;37.47;18.95;;;;;;;9.45;100.00;101883.50;4957050;29;20114;-84
2023/01/02 06:51:13;;;;;;;37.53;18.02;;;;;;;9.51;100.00;101894.44;4955128;29;20031;-81
2023/01/02 06:53:41;;;;;;;35.83;19.38;;;;;;;9.45;100.00;101888.78;4955943;29;20062;-83
2023/01/02 06:56:08;;;;;;;35.67;19.00;;;;;;;9.52;100.00;101890.84;4955428;29;20494;-85
2023/01/02 06:58:35;;;;;;;38.25;18.88;;;;;;;9.45;100.00;101889.63;4954591;29;20046;-83
2023/01/02 07:01:12;;;;;;;36.35;18.33;;;;;;;9.34;100.00;101893.16;4956143;28;20097;-82
2023/01/02 07:03:37;;;;;;;36.00;18.67;;;;;;;9.32;100.00;101900.34;4958196;29;20086;-85
2023/01/02 07:06:07;;;;;;;37.45;19.33;;;;;;;9.38;100.00;101904.31;4958421;29;20023;-84
2023/01/02 07:08:33;;;;;;;40.63;20.85;;;;;;;9.34;100.00;101897.59;4957032;29;20038;-83
2023/01/02 07:11:11;;;;;;;32.83;16.25;;;;;;;9.01;100.00;101894.94;4958202;28;20061;-83
2023/01/02 07:13:36;;;;;;;27.95;15.75;;;;;;;9.09;100.00;101900.47;4959644;29;20043;-83
2023/01/02 07:16:07;;;;;;;31.85;14.35;;;;;;;9.25;100.00;101898.28;4959411;29;20031;-83
2023/01/02 07:18:33;;;;;;;34.95;17.52;;;;;;;9.20;100.00;101900.47;4959057;29;20043;-82
2023/01/02 07:20:59;;;;;;;27.85;15.95;;;;;;;9.08;100.00;101896.16;4958697;29;20137;-85
2023/01/02 07:23:25;;;;;;;34.90;16.63;;;;;;;9.19;100.00;101893.50;4959404;29;20478;-87
2023/01/02 07:25:55;;;;;;;37.53;17.02;;;;;;;9.31;100.00;101903.94;4960943;29;20090;-86
2023/01/02 07:28:21;;;;;;;32.63;17.08;;;;;;;9.34;100.00;101901.09;4959734;28;20166;-87
2023/01/02 07:30:47;;;;;;;34.00;15.23;;;;;;;9.25;100.00;101898.28;4959549;29;20039;-86
2023/01/02 07:33:12;;;;;;;33.78;16.65;;;;;;;9.25;100.00;101896.50;4959153;29;20046;-85
2023/01/02 07:35:38;;;;;;;38.85;18.70;;;;;;;9.28;100.00;101895.41;4960002;29;20371;-87
2023/01/02 07:38:03;;;;;;;34.85;17.00;;;;;;;9.10;100.00;101899.50;4959408;29;20063;-85
2023/01/02 07:40:28;;;;;;;32.67;17.00;;;;;;;9.23;100.00;101900.22;4960292;29;20139;-87
2023/01/02 07:42:55;;;;;;;41.70;17.88;;;;;;;9.13;100.00;101905.41;4961053;28;20035;-86
2023/01/02 07:45:20;;;;;;;38.78;18.75;;;;;;;9.16;100.00;101904.31;4958386;28;20469;-83
2023/01/02 07:47:46;;;;;;;47.13;20.33;;;;;;;9.18;100.00;101908.50;4959272;29;20449;-87
2023/01/02 07:50:11;;;;;;;42.42;20.48;;;;;;;9.29;100.00;101899.75;4959617;29;20426;-87
2023/01/02 07:52:37;;;;;;;49.38;21.23;;;;;;;9.12;100.00;101905.50;4958852;29;20094;-88
2023/01/02 07:55:02;;;;;;;46.13;21.58;;;;;;;9.03;100.00;101903.56;4958113;29;20039;-88
2023/01/02 07:57:30;;;;;;;52.38;22.83;;;;;;;9.08;100.00;101912.00;4958663;29;20159;-87
2023/01/02 07:59:55;;;;;;;54.75;24.00;;;;;;;8.99;100.00;101915.34;4959507;29;20032;-87
2023/01/02 08:02:21;;;;;;;63.95;26.88;;;;;;;9.02;100.00;101910.66;4950952;29;20139;-86
2023/01/02 08:04:47;;;;;;;69.68;29.10;;;;;;;9.14;100.00;101906.25;4959801;29;20039;-86
2023/01/02 08:07:12;;;;;;;70.43;29.08;;;;;;;9.14;100.00;101914.19;4960151;28;20023;-87
2023/01/02 08:09:38;;;;;;;63.22;27.70;;;;;;;9.14;100.00;101914.19;4959983;29;20045;-84
2023/01/02 08:12:03;;;;;;;62.80;26.73;;;;;;;9.17;100.00;101930.66;4960580;29;20035;-86
2023/01/02 08:14:29;;;;;;;57.67;25.58;;;;;;;9.43;100.00;101930.41;4959461;28;20537;-88
2023/01/02 08:16:54;;;;;;;61.15;26.75;;;;;;;9.22;100.00;101922.34;4957157;29;20066;-87
2023/01/02 08:19:20;;;;;;;65.97;27.67;;;;;;;9.15;100.00;101918.50;4958239;29;20047;-89
2023/01/02 08:21:45;;;;;;;65.53;29.08;;;;;;;9.16;100.00;101926.31;4966988;28;20031;-86
2023/01/02 08:24:12;;;;;;;69.10;28.83;;;;;;;9.13;100.00;101925.72;4964453;29;20079;-88
2023/01/02 08:26:37;;;;;;;68.10;28.75;;;;;;;9.14;100.00;101924.75;4968682;29;20028;-86
2023/01/02 08:29:03;;;;;;;67.55;28.77;;;;;;;9.14;100.00;101924.75;4968128;29;20111;-87
2023/01/02 08:31:29;;;;;;;66.20;28.33;;;;;;;9.13;100.00;101926.56;4966945;29;20039;-86
2023/01/02 08:33:54;;;;;;;67.50;28.02;;;;;;;9.12;100.00;101918.72;4969278;29;20123;-87
2023/01/02 08:36:20;;;;;;;58.00;27.75;;;;;;;9.13;100.00;101923.06;4971556;29;20057;-87
2023/01/02 08:38:46;;;;;;;66.70;28.02;;;;;;;9.14;100.00;101922.13;4970463;28;20043;-87
2023/01/02 08:41:11;;;;;;;66.30;28.50;;;;;;;9.17;100.00;101924.53;4970044;29;20117;-86
2023/01/02 08:43:37;;;;;;;74.25;30.02;;;;;;;9.31;100.00;101919.00;4969718;29;20035;-85
2023/01/02 08:46:07;;;;;;;72.70;31.73;;;;;;;9.23;100.00;101916.09;4968315;29;20435;-89
2023/01/02 08:48:33;;;;;;;87.65;31.95;;;;;;;9.26;100.00;101921.16;4968187;28;20062;-87
2023/01/02 08:50:58;;;;;;;79.20;31.63;;;;;;;9.35;100.00;101926.56;4968979;29;20070;-87
2023/01/02 08:53:24;;;;;;;82.82;35.90;;;;;;;9.40;100.00;101923.56;4977175;29;20126;-84
2023/01/02 08:55:50;;;;;;;79.50;31.65;;;;;;;9.32;100.00;101920.66;4978804;28;20031;-86
2023/01/02 08:58:16;;;;;;;63.10;28.67;;;;;;;9.33;100.00;101925.00;4978413;29;20049;-88
2023/01/02 09:00:41;;;;;;;69.45;30.45;;;;;;;9.42;100.00;101932.22;4978485;29;20031;-86
2023/01/02 09:03:07;;;;;;;74.18;29.63;;;;;;;9.41;100.00;101935.00;4979165;29;20058;-83
2023/01/02 09:05:33;;;;;;;74.45;29.13;;;;;;;9.39;100.00;101943.03;4979638;29;20046;-84
2023/01/02 09:08:01;;;;;;;66.10;29.30;;;;;;;9.40;100.00;101931.50;4979156;28;20031;-85
2023/01/02 09:10:27;;;;;;;57.22;25.95;;;;;;;9.61;100.00;101937.75;4979466;28;20031;-87
2023/01/02 09:12:53;;;;;;;51.65;24.83;;;;;;;9.59;100.00;101936.19;4979782;29;20092;-85
2023/01/02 09:15:18;;;;;;;55.95;25.48;;;;;;;9.53;100.00;101934.03;4979804;29;20019;-85
2023/01/02 09:17:44;;;;;;;51.72;24.15;;;;;;;9.47;100.00;101940.66;4979625;28;20031;-85
2023/01/02 09:20:09;;;;;;;59.67;26.65;;;;;;;9.53;100.00;101940.16;4978632;29;20043;-85
2023/01/02 09:22:35;;;;;;;61.33;24.17;;;;;;;9.72;100.00;101942.19;4979496;28;20024;-89
2023/01/02 09:25:01;;;;;;;48.47;23.00;;;;;;;9.86;100.00;101950.72;4979592;29;20050;-86
2023/01/02 09:27:26;;;;;;;47.05;22.17;;;;;;;9.79;100.00;101946.03;4979833;29;20055;-83
2023/01/02 09:29:52;;;;;;;45.63;21.40;;;;;;;9.84;100.00;101954.47;4978915;28;20039;-83
2023/01/02 09:32:18;;;;;;;43.50;21.02;;;;;;;10.11;100.00;101962.81;4979607;29;20046;-84
2023/01/02 09:34:49;;;;;;;40.35;20.65;;;;;;;10.05;100.00;101968.63;4979250;28;20034;-85
2023/01/02 09:37:16;;;;;;;43.05;21.05;;;;;;;10.01;100.00;101966.38;4971924;28;20047;-88
2023/01/02 09:39:42;;;;;;;57.55;24.75;;;;;;;9.99;100.00;101958.53;4957961;29;20054;-85
2023/01/02 09:42:14;;;;;;;44.33;22.02;;;;;;;10.22;100.00;101965.50;4958523;29;20031;-87
2023/01/02 09:44:43;;;;;;;47.17;22.40;;;;;;;10.32;100.00;101965.59;4958797;29;20118;-86
2023/01/02 09:47:09;;;;;;;41.67;20.45;;;;;;;10.61;100.00;101969.31;4957569;29;20129;-87
2023/01/02 09:49:46;;;;;;;35.30;19.13;;;;;;;10.52;100.00;101967.44;4958449;29;20074;-85
2023/01/02 09:52:16;;;;;;;36.03;19.17;;;;;;;10.62;100.00;101962.22;4962252;29;20070;-85
2023/01/02 09:54:41;;;;;;;38.03;19.42;;;;;;;10.48;100.00;101957.22;4963982;29;20439;-84
2023/01/02 09:57:25;;;;;;;39.28;19.90;;;;;;;10.46;100.00;101960.00;4961353;29;20046;-85
2023/01/02 10:00:14;;;;;;;36.13;18.85;;;;;;;10.55;100.00;101961.88;4968443;28;20067;-84
2023/01/02 10:03:05;;;;;;;39.75;19.60;;;;;;;10.40;100.00;101957.00;4958354;29;20513;-86
2023/01/02 10:05:33;;;;;;;36.75;18.55;;;;;;;10.57;100.00;101959.94;4956490;29;20038;-86
2023/01/02 10:08:23;;;;;;;41.35;19.95;;;;;;;10.46;100.00;101956.50;4957179;29;20083;-85
2023/01/02 10:11:14;;;;;;;44.63;21.77;;;;;;;10.43;100.00;101946.16;4956643;29;20498;-86
2023/01/02 10:14:11;;;;;;;38.72;21.45;;;;;;;10.71;100.00;101942.88;4957415;29;20513;-85
2023/01/02 10:16:41;;;;;;;48.95;21.23;;;;;;;10.62;100.00;101947.16;4959604;29;20553;-85
2023/01/02 10:19:21;;;;;;;42.97;21.63;;;;;;;10.41;100.00;101938.31;4958216;29;20130;-84
2023/01/02 10:21:53;;;;;;;43.30;20.10;;;;;;;10.61;100.00;101932.22;4957943;29;20043;-85
2023/01/02 10:24:29;;;;;;;44.27;21.90;;;;;;;10.87;100.00;101935.34;4959142;29;20031;-88
2023/01/02 10:26:55;;;;;;;42.67;19.85;;;;;;;10.82;100.00;101930.44;4958748;29;20046;-83
2023/01/02 10:29:47;;;;;;;34.35;18.90;;;;;;;10.86;100.00;101929.19;4958050;29;20035;-83
2023/01/02 10:32:16;;;;;;;37.83;18.70;;;;;;;10.94;100.00;101928.53;4959410;29;20031;-84
2023/01/02 10:34:58;;;;;;;36.33;18.50;;;;;;;10.86;100.00;101917.75;4957797;29;20043;-87
2023/01/02 10:37:25;;;;;;;35.22;18.63;;;;;;;10.67;100.00;101913.13;4958073;29;20054;-87
2023/01/02 10:39:51;;;;;;;35.20;19.02;;;;;;;10.60;100.00;101912.00;4957834;29;20035;-86
2023/01/02 10:42:17;;;;;;;36.47;19.20;;;;;;;10.47;100.00;101916.63;4962327;29;20120;-85
2023/01/02 10:44:44;;;;;;;41.63;19.83;;;;;;;10.39;100.00;101913.75;4967266;28;20125;-87
2023/01/02 10:47:32;;;;;;;33.65;18.80;;;;;;;10.34;100.00;101905.38;4972978;29;20050;-85
2023/01/02 10:50:02;;;;;;;31.73;17.65;;;;;;;10.34;100.00;101905.38;4975336;28;20111;-83
2023/01/02 10:52:32;;;;;;;39.63;20.15;;;;;;;10.31;100.00;101900.28;4972527;29;20101;-84
2023/01/02 10:54:59;;;;;;;32.55;17.88;;;;;;;10.48;100.00;101896.25;4971653;29;20035;-84
2023/01/02 10:57:45;;;;;;;31.67;17.55;;;;;;;10.35;100.00;101901.72;4974659;29;20035;-83
2023/01/02 11:00:19;;;;;;;35.20;18.65;;;;;;;10.39;100.00;101900.50;4971550;29;20042;-83
2023/01/02 11:03:16;;;;;;;30.90;17.77;;;;;;;10.32;100.00;101894.03;4969522;29;20033;-85
2023/01/02 11:05:55;;;;;;;34.40;17.73;;;;;;;10.34;100.00;101889.47;4969013;29;20055;-82
2023/01/02 11:08:32;;;;;;;34.63;18.45;;;;;;;10.40;100.00;101899.56;4962979;29;20032;-85
2023/01/02 11:11:00;;;;;;;31.67;18.23;;;;;;;10.47;100.00;101887.47;4962024;29;20039;-85
2023/01/02 11:13:42;;;;;;;30.17;16.95;;;;;;;10.43;100.00;101883.41;4962648;29;20406;-86
2023/01/02 11:16:12;;;;;;;29.00;15.30;;;;;;;10.48;100.00;101878.53;4967412;29;20126;-84
2023/01/02 11:18:38;;;;;;;26.13;15.27;;;;;;;10.50;100.00;101873.13;4961569;29;20042;-83
2023/01/02 11:21:06;;;;;;;25.25;14.38;;;;;;;10.54;100.00;101869.25;4975572;29;20047;-83
2023/01/02 11:23:39;;;;;;;26.05;14.18;;;;;;;10.50;100.00;101859.88;4976611;29;20043;-82